Time;durP1;ratioP1;P1;durP2;ratioP2;P2;SDS_P1;SDS_P2;PMS_P1;PMS_P2;Temp;Humidity;BMP_temperature;BMP_pressure;BME280_temperature;BME280_humidity;BME280_pressure;Samples;Min_cycle;Max_cycle;Signal;HPM_P1;HPM_P2
2022/08/15 00:01:30;;;;;;;4.63;4.15;;;24.20;76.80;;;;;;5033803;28;20358;-59
2022/08/15 00:03:58;;;;;;;3.80;3.35;;;24.20;76.80;;;;;;5033500;28;20052;-59
2022/08/15 00:06:31;;;;;;;4.85;4.10;;;24.20;76.80;;;;;;5034654;28;20086;-59
2022/08/15 00:08:58;;;;;;;3.97;3.50;;;24.20;76.90;;;;;;5050966;28;20032;-59
2022/08/15 00:11:40;;;;;;;3.78;3.38;;;24.20;76.90;;;;;;5046784;28;20104;-59
2022/08/15 00:14:21;;;;;;;4.53;3.92;;;24.20;76.90;;;;;;5032590;28;20033;-59
2022/08/15 00:16:48;;;;;;;;;;;24.10;77.00;;;;;;5025334;28;20040;-59
2022/08/15 00:19:34;;;;;;;3.67;3.35;;;24.10;77.00;;;;;;5032709;28;19909;-59
2022/08/15 00:22:04;;;;;;;5.22;4.07;;;24.10;77.00;;;;;;5032888;28;20037;-58
2022/08/15 00:24:33;;;;;;;5.10;4.60;;;24.00;77.00;;;;;;5036981;28;20024;-59
2022/08/15 00:27:02;;;;;;;4.57;4.15;;;24.00;77.10;;;;;;5032803;28;20041;-59
2022/08/15 00:29:31;;;;;;;5.00;4.22;;;24.00;77.20;;;;;;5031829;28;20049;-59
2022/08/15 00:32:01;;;;;;;4.50;3.95;;;24.00;77.20;;;;;;5031833;28;20041;-59
2022/08/15 00:34:27;;;;;;;4.55;4.05;;;24.00;77.40;;;;;;5032831;28;20044;-59
2022/08/15 00:36:53;;;;;;;4.07;3.67;;;24.00;77.30;;;;;;5032559;28;20159;-59
2022/08/15 00:39:21;;;;;;;4.60;3.95;;;24.00;77.50;;;;;;5032796;28;20469;-59
2022/08/15 00:41:49;;;;;;;5.60;4.10;;;23.90;77.60;;;;;;5030774;28;20033;-58
2022/08/15 00:44:18;;;;;;;4.22;3.83;;;24.00;77.60;;;;;;5032923;28;20024;-59
2022/08/15 00:46:48;;;;;;;5.40;4.47;;;23.90;77.70;;;;;;5031660;28;20075;-58
2022/08/15 00:49:14;;;;;;;5.15;4.25;;;23.90;77.70;;;;;;5031182;28;20029;-59
2022/08/15 00:51:48;;;;;;;4.63;4.03;;;23.90;77.80;;;;;;5032213;28;20112;-59
2022/08/15 00:54:21;;;;;;;4.70;3.97;;;24.00;77.90;;;;;;5038990;28;20373;-59
2022/08/15 00:57:04;;;;;;;4.57;4.00;;;23.90;77.90;;;;;;5032130;28;20031;-59
2022/08/15 00:59:34;;;;;;;4.90;4.40;;;23.90;77.80;;;;;;5032656;28;20017;-59
2022/08/15 01:02:06;;;;;;;5.05;4.43;;;23.90;77.90;;;;;;5022538;28;20031;-59
2022/08/15 01:04:33;;;;;;;4.82;4.22;;;24.00;78.00;;;;;;5031344;28;20109;-59
2022/08/15 01:06:59;;;;;;;4.97;4.20;;;24.00;77.90;;;;;;5031523;28;20057;-58
2022/08/15 01:09:27;;;;;;;4.40;3.97;;;24.00;77.80;;;;;;5032258;28;20059;-59
2022/08/15 01:12:16;;;;;;;5.60;5.00;;;24.00;77.70;;;;;;5031683;28;20485;-59
2022/08/15 01:14:46;;;;;;;4.35;3.95;;;24.00;77.50;;;;;;5037327;28;20017;-59
2022/08/15 01:17:12;;;;;;;4.80;4.03;;;24.00;77.40;;;;;;5034621;28;20036;-59
2022/08/15 01:20:03;;;;;;;4.20;3.55;;;24.10;77.40;;;;;;5031340;28;20076;-59
2022/08/15 01:23:03;;;;;;;4.78;4.22;;;24.10;77.50;;;;;;5031657;28;20036;-59
2022/08/15 01:25:43;;;;;;;4.75;4.15;;;24.10;77.20;;;;;;5031984;28;20155;-59
2022/08/15 01:28:17;;;;;;;4.40;4.00;;;24.10;77.20;;;;;;5032031;28;20366;-59
2022/08/15 01:30:51;;;;;;;4.00;3.40;;;24.10;77.20;;;;;;5031868;28;20045;-59
2022/08/15 01:33:17;;;;;;;4.40;3.80;;;24.10;77.20;;;;;;5030588;28;20030;-59
2022/08/15 01:35:45;;;;;;;4.88;4.32;;;24.20;77.10;;;;;;5018236;28;20033;-58
2022/08/15 01:38:37;;;;;;;4.50;3.88;;;24.20;77.80;;;;;;5026743;28;20040;-59
2022/08/15 01:41:16;;;;;;;5.22;4.50;;;24.20;77.10;;;;;;5029210;28;20037;-59
2022/08/15 01:44:05;;;;;;;4.90;4.05;;;24.20;77.20;;;;;;5032555;28;20053;-59
2022/08/15 01:46:35;;;;;;;5.88;4.07;;;24.10;77.20;;;;;;5036214;28;20477;-59
2022/08/15 01:49:10;;;;;;;4.87;4.37;;;24.20;77.30;;;;;;5035806;28;20021;-59
2022/08/15 01:51:36;;;;;;;4.90;4.40;;;24.20;77.20;;;;;;5035202;28;20447;-59
2022/08/15 01:54:05;;;;;;;4.85;4.35;;;24.20;77.30;;;;;;5034977;28;20053;-59
2022/08/15 01:56:38;;;;;;;4.63;4.13;;;24.20;77.00;;;;;;5035180;28;20034;-58
2022/08/15 01:59:06;;;;;;;5.38;4.75;;;24.20;77.10;;;;;;5035661;28;20022;-59
2022/08/15 02:01:57;;;;;;;5.55;4.22;;;24.30;77.10;;;;;;5035458;28;20063;-59
2022/08/15 02:04:28;;;;;;;4.28;3.88;;;24.30;76.90;;;;;;5025141;28;20041;-59
2022/08/15 02:06:58;;;;;;;4.47;4.07;;;24.30;77.00;;;;;;5035731;28;20512;-58
2022/08/15 02:09:24;;;;;;;5.20;4.70;;;24.30;76.80;;;;;;5034432;28;20022;-59
2022/08/15 02:11:51;;;;;;;5.97;4.57;;;24.30;76.70;;;;;;5027317;28;20294;-58
2022/08/15 02:14:20;;;;;;;5.10;4.60;;;24.30;76.50;;;;;;5033596;28;20026;-59
2022/08/15 02:16:47;;;;;;;5.53;4.32;;;24.30;76.50;;;;;;5044851;28;20037;-58
2022/08/15 02:19:14;;;;;;;5.25;4.60;;;24.30;76.40;;;;;;5035284;28;20470;-59
2022/08/15 02:21:43;;;;;;;4.65;4.05;;;24.30;76.60;;;;;;5035505;28;20414;-59
2022/08/15 02:24:13;;;;;;;4.20;3.80;;;24.40;76.50;;;;;;5027645;28;20018;-58
2022/08/15 02:26:39;;;;;;;4.45;4.05;;;24.40;76.60;;;;;;5035233;28;20104;-59
2022/08/15 02:29:05;;;;;;;4.95;4.10;;;24.40;76.50;;;;;;5034882;28;20049;-59
2022/08/15 02:31:32;;;;;;;4.88;4.38;;;24.50;76.40;;;;;;5034222;28;20404;-59
2022/08/15 02:34:01;;;;;;;4.40;3.72;;;24.40;76.20;;;;;;5033823;28;20358;-59
2022/08/15 02:36:30;;;;;;;4.78;4.28;;;24.40;76.80;;;;;;5035157;28;20468;-59
2022/08/15 02:38:58;;;;;;;5.07;4.30;;;24.50;76.20;;;;;;5034161;28;20041;-59
2022/08/15 02:41:34;;;;;;;4.25;3.85;;;24.50;76.10;;;;;;5035339;28;20098;-59
2022/08/15 02:44:01;;;;;;;6.03;4.38;;;24.50;76.00;;;;;;5022781;28;20018;-59
2022/08/15 02:46:29;;;;;;;5.10;4.60;;;24.50;75.90;;;;;;5034915;28;20021;-59
2022/08/15 02:48:58;;;;;;;4.65;4.15;;;24.50;75.80;;;;;;5033875;28;20075;-59
2022/08/15 02:51:25;;;;;;;4.80;4.30;;;24.50;75.60;;;;;;5035103;28;20370;-59
2022/08/15 02:53:52;;;;;;;4.63;4.10;;;24.50;75.50;;;;;;5032568;28;20059;-59
2022/08/15 02:56:22;;;;;;;6.28;4.60;;;24.50;75.50;;;;;;5033369;28;20029;-58
2022/08/15 02:58:49;;;;;;;5.13;4.50;;;24.50;75.50;;;;;;5035212;28;20457;-59
2022/08/15 03:01:15;;;;;;;4.68;4.05;;;24.60;75.30;;;;;;5034208;28;20028;-59
2022/08/15 03:03:45;;;;;;;4.72;4.30;;;24.60;75.40;;;;;;5033331;28;20037;-59
2022/08/15 03:06:13;;;;;;;5.13;4.63;;;24.60;75.30;;;;;;5033406;28;20018;-58
2022/08/15 03:08:40;;;;;;;4.82;4.32;;;24.60;75.20;;;;;;5026009;28;20057;-59
2022/08/15 03:11:08;;;;;;;5.05;4.10;;;24.60;75.10;;;;;;5031502;28;20485;-58
2022/08/15 03:13:34;;;;;;;5.07;4.18;;;24.60;75.20;;;;;;5033809;28;20026;-59
2022/08/15 03:16:01;;;;;;;4.80;4.13;;;24.60;75.10;;;;;;5042144;28;20017;-59
2022/08/15 03:18:30;;;;;;;4.30;3.90;;;24.60;75.00;;;;;;5034230;28;20036;-59
2022/08/15 03:20:57;;;;;;;4.55;4.15;;;24.70;75.10;;;;;;5033716;28;20108;-59
2022/08/15 03:23:27;;;;;;;4.70;3.95;;;24.60;75.00;;;;;;5034010;28;20082;-59
2022/08/15 03:25:56;;;;;;;5.03;4.40;;;24.60;75.00;;;;;;5035747;28;20021;-59
2022/08/15 03:28:25;;;;;;;4.78;4.20;;;24.70;75.00;;;;;;5033937;28;20037;-59
2022/08/15 03:30:51;;;;;;;4.43;3.90;;;24.70;75.10;;;;;;5031658;28;20112;-59
2022/08/15 03:33:18;;;;;;;5.25;4.15;;;24.70;74.90;;;;;;5032952;28;20108;-59
2022/08/15 03:35:47;;;;;;;5.95;4.60;;;24.70;74.80;;;;;;5033854;28;20037;-59
2022/08/15 03:38:13;;;;;;;4.18;3.78;;;24.70;74.70;;;;;;5033155;28;20033;-59
2022/08/15 03:40:42;;;;;;;4.75;3.75;;;24.70;74.80;;;;;;5033770;28;20036;-58
2022/08/15 03:43:15;;;;;;;3.92;3.53;;;24.80;74.70;;;;;;5033858;28;20064;-59
2022/08/15 03:45:47;;;;;;;5.90;3.90;;;24.80;74.60;;;;;;5026074;28;20108;-59
2022/08/15 03:48:13;;;;;;;4.97;4.03;;;24.80;74.60;;;;;;5031563;28;20024;-59
2022/08/15 03:50:39;;;;;;;4.65;3.90;;;24.90;74.60;;;;;;5033820;28;20503;-59
2022/08/15 03:53:06;;;;;;;4.82;4.32;;;25.00;74.50;;;;;;5033014;28;20014;-58
2022/08/15 03:55:35;;;;;;;4.80;4.13;;;25.00;74.30;;;;;;5032576;28;20104;-59
2022/08/15 03:58:01;;;;;;;5.25;4.50;;;25.10;74.20;;;;;;5033144;28;20037;-58
2022/08/15 04:00:34;;;;;;;4.57;4.10;;;25.10;74.10;;;;;;5033058;28;20028;-59
2022/08/15 04:03:12;;;;;;;6.13;4.30;;;25.20;73.90;;;;;;5030950;28;20445;-59
2022/08/15 04:05:39;;;;;;;4.85;4.30;;;25.30;73.60;;;;;;5032214;28;20477;-58
2022/08/15 04:08:06;;;;;;;5.10;4.60;;;25.30;73.40;;;;;;5032345;28;20032;-59
2022/08/15 04:10:33;;;;;;;5.13;4.20;;;25.30;73.30;;;;;;5032175;28;20031;-59
2022/08/15 04:13:01;;;;;;;4.88;4.38;;;25.30;73.20;;;;;;5031467;28;20072;-59
2022/08/15 04:15:28;;;;;;;4.40;4.00;;;25.40;73.00;;;;;;5044044;28;20064;-59
2022/08/15 04:17:54;;;;;;;5.22;4.10;;;25.40;72.90;;;;;;5033192;28;20135;-58
2022/08/15 04:20:21;;;;;;;6.22;4.30;;;25.40;72.80;;;;;;5032605;28;20362;-59
2022/08/15 04:22:49;;;;;;;3.97;3.58;;;25.40;72.70;;;;;;5033289;28;20018;-58
2022/08/15 04:25:22;;;;;;;5.20;4.07;;;25.40;72.60;;;;;;5032438;28;20108;-59
2022/08/15 04:27:50;;;;;;;4.55;4.15;;;25.40;72.50;;;;;;5020747;28;20029;-57
2022/08/15 04:30:16;;;;;;;4.88;4.18;;;25.40;72.50;;;;;;5031856;28;20053;-59
2022/08/15 04:32:42;;;;;;;4.93;3.83;;;25.40;72.60;;;;;;5031463;28;20401;-59
2022/08/15 04:35:10;;;;;;;5.72;4.00;;;25.40;72.50;;;;;;5031252;28;20021;-58
2022/08/15 04:37:37;;;;;;;5.25;4.72;;;25.40;72.40;;;;;;5013754;28;20044;-58
2022/08/15 04:40:04;;;;;;;5.28;4.45;;;25.40;72.10;;;;;;5030721;28;20420;-59
2022/08/15 04:42:30;;;;;;;5.18;4.68;;;25.50;72.50;;;;;;5030412;28;20473;-58
2022/08/15 04:44:56;;;;;;;4.45;3.95;;;25.50;71.80;;;;;;5030526;28;20106;-58
2022/08/15 04:47:22;;;;;;;4.70;4.22;;;25.60;72.00;;;;;;5031739;28;20390;-58
2022/08/15 04:49:47;;;;;;;5.70;4.20;;;25.60;71.80;;;;;;5032330;28;20037;-59
2022/08/15 04:52:16;;;;;;;4.45;3.95;;;25.80;71.60;;;;;;5026700;28;20036;-58
2022/08/15 04:54:43;;;;;;;5.10;4.40;;;25.90;71.30;;;;;;5027112;28;20116;-59
2022/08/15 04:57:09;;;;;;;4.05;3.65;;;26.00;71.00;;;;;;5027199;28;20026;-59
2022/08/15 04:59:36;;;;;;;4.28;3.88;;;26.10;70.80;;;;;;5028457;28;20040;-58
2022/08/15 05:02:05;;;;;;;4.63;4.10;;;26.10;70.60;;;;;;5025541;28;20100;-59
2022/08/15 05:04:31;;;;;;;4.07;3.67;;;26.20;70.40;;;;;;5021139;28;20028;-58
2022/08/15 05:06:57;;;;;;;4.20;3.58;;;26.30;70.10;;;;;;5031763;28;20099;-58
2022/08/15 05:09:23;;;;;;;5.22;4.10;;;26.40;70.00;;;;;;5029384;28;20030;-58
2022/08/15 05:11:50;;;;;;;4.45;4.05;;;26.40;69.90;;;;;;5031284;28;20448;-59
2022/08/15 05:14:15;;;;;;;4.57;4.03;;;26.40;69.50;;;;;;5030727;28;20025;-58
2022/08/15 05:16:41;;;;;;;4.50;3.83;;;26.40;69.40;;;;;;5031896;28;20546;-59
2022/08/15 05:19:06;;;;;;;4.82;3.67;;;26.40;69.30;;;;;;5030647;28;20059;-58
2022/08/15 05:21:32;;;;;;;4.38;3.80;;;26.40;69.20;;;;;;5030425;28;20121;-58
2022/08/15 05:23:58;;;;;;;4.75;4.20;;;26.40;69.00;;;;;;5031291;28;20021;-59
2022/08/15 05:26:24;;;;;;;5.43;3.85;;;26.40;68.90;;;;;;5030957;28;20029;-59
2022/08/15 05:28:49;;;;;;;4.22;3.83;;;26.40;68.90;;;;;;5029944;28;20517;-59
2022/08/15 05:31:16;;;;;;;5.40;3.95;;;26.40;68.80;;;;;;5029780;28;20021;-58
2022/08/15 05:33:44;;;;;;;4.03;3.58;;;26.30;68.90;;;;;;5030597;28;20555;-59
2022/08/15 05:36:11;;;;;;;3.85;3.40;;;26.20;68.90;;;;;;5030859;28;20515;-58
2022/08/15 05:38:41;;;;;;;4.85;4.00;;;26.10;69.20;;;;;;5022325;28;20029;-59
2022/08/15 05:41:25;;;;;;;4.50;4.10;;;26.10;69.40;;;;;;5028478;28;20033;-58
2022/08/15 05:44:01;;;;;;;4.25;3.58;;;26.00;69.30;;;;;;5015904;28;20068;-58
2022/08/15 05:46:26;;;;;;;4.40;3.78;;;25.90;69.50;;;;;;5024053;28;20373;-59
2022/08/15 05:49:09;;;;;;;5.20;3.90;;;25.70;69.60;;;;;;5024904;28;20026;-58
2022/08/15 05:51:37;;;;;;;4.80;3.50;;;25.60;69.80;;;;;;5016948;28;20790;-59
2022/08/15 05:54:11;;;;;;;3.90;3.47;;;25.50;70.10;;;;;;5021115;28;20123;-59
2022/08/15 05:57:09;;;;;;;4.93;4.00;;;25.40;70.30;;;;;;5015559;28;20029;-59
2022/08/15 05:59:48;;;;;;;3.92;3.53;;;25.30;70.50;;;;;;5029203;28;20080;-59
2022/08/15 06:02:27;;;;;;;3.85;3.47;;;25.30;70.90;;;;;;5017745;28;20029;-58
2022/08/15 06:05:36;;;;;;;4.22;3.78;;;25.20;71.10;;;;;;5023454;28;20021;-59
2022/08/15 06:08:08;;;;;;;3.85;3.20;;;25.20;71.10;;;;;;5009914;28;20042;-59
2022/08/15 06:10:49;;;;;;;4.05;3.30;;;25.10;71.30;;;;;;5007739;28;20040;-59
2022/08/15 06:13:27;;;;;;;4.72;3.92;;;25.00;71.60;;;;;;5022316;28;20033;-59
2022/08/15 06:15:52;;;;;;;4.15;3.75;;;25.00;72.00;;;;;;5016725;28;20048;-58
2022/08/15 06:18:20;;;;;;;4.07;3.67;;;25.00;72.20;;;;;;5020437;28;20346;-59
2022/08/15 06:21:01;;;;;;;4.10;3.70;;;24.90;72.20;;;;;;5016905;28;20057;-59
2022/08/15 06:23:46;;;;;;;4.00;3.60;;;24.90;72.40;;;;;;5014068;28;20408;-59
2022/08/15 06:26:31;;;;;;;4.60;3.80;;;24.80;72.20;;;;;;5020018;28;20052;-58
2022/08/15 06:28:57;;;;;;;4.43;3.70;;;24.80;72.20;;;;;;5016171;28;20049;-59
2022/08/15 06:31:31;;;;;;;3.97;3.55;;;24.80;72.50;;;;;;5018698;28;20068;-58
2022/08/15 06:34:30;;;;;;;4.55;3.70;;;24.80;72.50;;;;;;5018649;28;20029;-58
2022/08/15 06:37:06;;;;;;;4.45;3.50;;;24.80;72.30;;;;;;5021108;28;20052;-58
2022/08/15 06:39:40;;;;;;;4.50;3.70;;;24.70;72.30;;;;;;5019560;28;20030;-58
2022/08/15 06:42:34;;;;;;;4.40;3.95;;;24.70;72.90;;;;;;5018692;28;20038;-58
2022/08/15 06:45:05;;;;;;;4.03;3.60;;;24.70;72.00;;;;;;5006169;28;20531;-59
2022/08/15 06:47:32;;;;;;;4.25;3.83;;;24.70;72.10;;;;;;5017430;28;20025;-58
2022/08/15 06:50:04;;;;;;;4.45;3.63;;;24.70;72.20;;;;;;5009242;28;20083;-59
2022/08/15 06:52:31;;;;;;;4.28;3.83;;;24.70;72.10;;;;;;5021627;28;20477;-58
2022/08/15 06:54:59;;;;;;;5.35;4.18;;;24.70;72.20;;;;;;5016687;28;20034;-59
2022/08/15 06:57:56;;;;;;;4.55;3.90;;;24.70;72.30;;;;;;5011312;28;20436;-60
2022/08/15 07:00:40;;;;;;;4.85;4.20;;;24.70;72.30;;;;;;5012935;28;20025;-57
2022/08/15 07:03:09;;;;;;;5.35;3.95;;;24.70;72.40;;;;;;5021313;28;20427;-58
2022/08/15 07:05:54;;;;;;;3.83;3.42;;;24.70;72.30;;;;;;5025180;28;20030;-58
2022/08/15 07:08:50;;;;;;;3.60;3.28;;;24.80;72.40;;;;;;5013301;28;20060;-58
2022/08/15 07:11:30;;;;;;;3.63;3.33;;;24.80;72.30;;;;;;5009537;28;20156;-58
2022/08/15 07:14:09;;;;;;;4.40;3.55;;;24.80;72.10;;;;;;5012764;28;20041;-58
2022/08/15 07:16:43;;;;;;;4.32;3.70;;;24.80;72.20;;;;;;5022725;28;20045;-57
2022/08/15 07:19:10;;;;;;;6.15;3.97;;;24.80;72.00;;;;;;5012916;28;20032;-58
2022/08/15 07:21:36;;;;;;;3.85;3.50;;;24.80;71.90;;;;;;5013444;28;20121;-59
2022/08/15 07:24:04;;;;;;;4.40;3.78;;;24.80;71.90;;;;;;5019244;28;20381;-59
2022/08/15 07:26:39;;;;;;;4.95;3.90;;;24.90;72.00;;;;;;5013978;28;20112;-58
2022/08/15 07:29:25;;;;;;;4.65;4.18;;;24.90;72.00;;;;;;4999161;28;20494;-58
2022/08/15 07:31:58;;;;;;;4.57;3.90;;;25.00;72.00;;;;;;5011272;28;20501;-58
2022/08/15 07:34:24;;;;;;;4.90;3.80;;;25.00;71.70;;;;;;5003342;28;20132;-58
2022/08/15 07:37:02;;;;;;;4.68;3.70;;;25.10;71.70;;;;;;5004375;28;20041;-57
2022/08/15 07:39:40;;;;;;;5.55;3.78;;;25.20;71.80;;;;;;5008972;28;23281;-59
2022/08/15 07:42:15;;;;;;;4.70;3.60;;;25.20;71.60;;;;;;5012545;28;20026;-59
2022/08/15 07:44:54;;;;;;;4.00;3.60;;;25.20;71.90;;;;;;5011898;28;20156;-58
2022/08/15 07:47:32;;;;;;;3.85;3.45;;;25.20;71.20;;;;;;5007852;28;20064;-58
2022/08/15 07:50:11;;;;;;;3.85;3.10;;;25.30;71.20;;;;;;5007196;28;20721;-58
2022/08/15 07:52:38;;;;;;;4.25;3.60;;;25.30;71.20;;;;;;5007858;28;20104;-58
2022/08/15 07:55:19;;;;;;;5.13;3.63;;;25.30;71.10;;;;;;5009077;28;20044;-59
2022/08/15 07:58:03;;;;;;;3.50;3.20;;;25.40;71.10;;;;;;5007389;28;20650;-58
2022/08/15 08:00:31;;;;;;;4.50;3.80;;;25.40;70.90;;;;;;4998330;28;20539;-58
2022/08/15 08:03:09;;;;;;;4.40;4.00;;;25.40;70.90;;;;;;5012393;28;20033;-59
2022/08/15 08:06:14;;;;;;;4.38;3.90;;;25.50;70.80;;;;;;5010221;28;20029;-59
2022/08/15 08:09:15;;;;;;;4.60;3.70;;;25.60;70.70;;;;;;4988711;28;20380;-59
2022/08/15 08:12:07;;;;;;;4.50;3.75;;;25.70;70.50;;;;;;5003442;28;20357;-59
2022/08/15 08:14:35;;;;;;;4.15;3.33;;;25.80;70.40;;;;;;5007590;28;20572;-59
2022/08/15 08:17:26;;;;;;;4.97;4.03;;;25.90;70.30;;;;;;5013647;28;20029;-59
2022/08/15 08:20:05;;;;;;;4.25;3.60;;;26.00;70.20;;;;;;5012583;28;20399;-59
2022/08/15 08:22:46;;;;;;;4.32;3.63;;;26.00;69.90;;;;;;5010142;28;20190;-59
2022/08/15 08:25:56;;;;;;;4.80;4.05;;;26.10;69.80;;;;;;5010117;28;20071;-59
2022/08/15 08:28:32;;;;;;;4.80;4.00;;;26.10;69.50;;;;;;4980229;28;20133;-59
2022/08/15 08:31:13;;;;;;;4.13;3.53;;;26.20;70.00;;;;;;5018925;28;20029;-59
2022/08/15 08:34:14;;;;;;;4.32;3.38;;;26.20;70.00;;;;;;5007192;28;20225;-58
2022/08/15 08:37:12;;;;;;;3.55;3.10;;;26.20;69.90;;;;;;5009173;28;20056;-58
2022/08/15 08:39:49;;;;;;;3.30;3.00;;;26.20;69.90;;;;;;5007466;28;20041;-60
2022/08/15 08:42:37;;;;;;;3.63;2.95;;;26.20;70.00;;;;;;5004869;28;20041;-59
2022/08/15 08:45:12;;;;;;;6.20;4.20;;;26.20;70.00;;;;;;5000396;28;21030;-60
2022/08/15 08:48:08;;;;;;;4.30;3.90;;;26.30;69.90;;;;;;4989913;28;20042;-59
2022/08/15 08:50:39;;;;;;;6.00;3.97;;;26.30;69.80;;;;;;5006953;28;20053;-58
2022/08/15 08:53:42;;;;;;;4.80;3.65;;;26.40;69.70;;;;;;5007200;28;20033;-58
2022/08/15 08:56:16;;;;;;;4.20;3.80;;;26.50;69.80;;;;;;5005486;28;20030;-59
2022/08/15 08:58:50;;;;;;;4.00;3.60;;;26.50;69.50;;;;;;5005975;28;20039;-58
2022/08/15 09:01:21;;;;;;;4.10;3.30;;;26.60;69.20;;;;;;5004287;28;20036;-59
2022/08/15 09:03:52;;;;;;;4.93;3.90;;;26.60;69.20;;;;;;5011924;28;20396;-58
2022/08/15 09:06:25;;;;;;;3.90;3.33;;;26.70;69.50;;;;;;5006882;28;20037;-59
2022/08/15 09:09:04;;;;;;;4.45;3.50;;;26.80;69.30;;;;;;5012577;28;20022;-58
2022/08/15 09:11:53;;;;;;;4.07;3.22;;;26.80;69.10;;;;;;4984183;28;20107;-59
2022/08/15 09:14:37;;;;;;;3.55;3.05;;;26.80;68.90;;;;;;5005123;28;21998;-61
2022/08/15 09:17:14;;;;;;;4.55;3.60;;;26.80;68.60;;;;;;5011068;28;20463;-58
2022/08/15 09:19:50;;;;;;;4.20;3.42;;;26.90;68.50;;;;;;5008289;28;20029;-58
2022/08/15 09:22:17;;;;;;;4.25;3.50;;;26.80;68.30;;;;;;5012212;28;20397;-58
2022/08/15 09:24:42;;;;;;;4.30;3.17;;;26.80;68.30;;;;;;5009641;28;21064;-58
2022/08/15 09:27:14;;;;;;;3.75;3.10;;;26.80;68.40;;;;;;5005149;28;20081;-59
2022/08/15 09:29:46;;;;;;;5.50;4.32;;;26.80;68.60;;;;;;5006128;28;20071;-59
2022/08/15 09:32:27;;;;;;;5.75;3.75;;;26.90;68.60;;;;;;5006393;28;20184;-59
2022/08/15 09:35:25;;;;;;;5.15;4.07;;;26.80;68.40;;;;;;5009419;28;20632;-59
2022/08/15 09:38:09;;;;;;;4.07;3.65;;;26.80;68.40;;;;;;5008337;28;20040;-58
2022/08/15 09:40:41;;;;;;;3.42;3.13;;;26.80;68.20;;;;;;5011021;28;20053;-58
2022/08/15 09:43:28;;;;;;;4.53;3.72;;;26.80;68.30;;;;;;5005700;28;20037;-58
2022/08/15 09:46:09;;;;;;;3.80;2.83;;;26.90;68.30;;;;;;5007746;28;20037;-59
2022/08/15 09:48:53;;;;;;;3.95;3.10;;;26.80;68.40;;;;;;5007628;28;20049;-60
2022/08/15 09:51:48;;;;;;;4.30;3.65;;;26.80;68.40;;;;;;5009349;28;20493;-58
2022/08/15 09:54:23;;;;;;;4.30;3.20;;;26.90;68.30;;;;;;5014245;28;20030;-59
2022/08/15 09:56:51;;;;;;;4.32;3.38;;;26.90;68.00;;;;;;5017704;28;20370;-59
2022/08/15 09:59:25;;;;;;;4.25;3.55;;;26.90;67.80;;;;;;5012383;28;20029;-59
2022/08/15 10:02:20;;;;;;;6.40;3.50;;;26.90;67.80;;;;;;5000032;28;21061;-58
2022/08/15 10:04:49;;;;;;;5.43;3.55;;;26.90;67.70;;;;;;5002212;28;20033;-58
2022/08/15 10:07:15;;;;;;;4.47;3.38;;;26.90;67.60;;;;;;5012506;28;20120;-59
2022/08/15 10:09:59;;;;;;;4.10;3.38;;;26.90;67.50;;;;;;5018670;28;20108;-58
2022/08/15 10:12:25;;;;;;;3.40;3.10;;;27.00;67.40;;;;;;5012405;28;20770;-58
2022/08/15 10:15:01;;;;;;;5.13;3.13;;;27.00;67.30;;;;;;5009084;28;20037;-59
2022/08/15 10:17:36;;;;;;;3.38;2.70;;;27.00;67.00;;;;;;5005009;28;20042;-59
2022/08/15 10:20:14;;;;;;;4.57;3.33;;;27.10;67.20;;;;;;5010525;28;20033;-58
2022/08/15 10:22:54;;;;;;;5.00;3.33;;;27.10;67.40;;;;;;5012453;28;20484;-58
2022/08/15 10:25:22;;;;;;;4.38;3.17;;;27.10;67.30;;;;;;5013940;28;20087;-59
2022/08/15 10:27:57;;;;;;;4.50;3.67;;;27.10;67.30;;;;;;4988483;28;20739;-59
2022/08/15 10:30:36;;;;;;;3.50;3.20;;;27.10;67.00;;;;;;5005975;28;20054;-59
2022/08/15 10:33:25;;;;;;;5.78;3.10;;;27.20;67.20;;;;;;5011303;28;20060;-59
2022/08/15 10:35:55;;;;;;;3.90;3.40;;;27.20;66.80;;;;;;5012544;28;20582;-59
2022/08/15 10:38:25;;;;;;;3.95;3.10;;;27.10;66.60;;;;;;5010126;28;20029;-59
2022/08/15 10:41:14;;;;;;;4.65;3.30;;;27.10;66.70;;;;;;5018527;28;20469;-60
2022/08/15 10:44:20;;;;;;;5.68;3.33;;;27.10;66.90;;;;;;5016132;28;20076;-58
2022/08/15 10:46:45;;;;;;;4.10;3.70;;;27.10;66.80;;;;;;4977590;28;20034;-58
2022/08/15 10:49:14;;;;;;;2.83;2.63;;;27.00;66.70;;;;;;5008794;28;20047;-58
2022/08/15 10:52:07;;;;;;;4.05;3.40;;;27.00;66.90;;;;;;5015951;28;20026;-58
2022/08/15 10:54:38;;;;;;;4.65;3.58;;;27.00;67.00;;;;;;5002058;28;20472;-60
2022/08/15 10:57:07;;;;;;;4.47;3.30;;;27.00;67.10;;;;;;5010108;28;20033;-59
2022/08/15 10:59:43;;;;;;;4.47;3.65;;;27.00;67.50;;;;;;5004256;28;20527;-59
2022/08/15 11:02:19;;;;;;;3.38;2.83;;;27.00;67.50;;;;;;5006678;28;20597;-60
2022/08/15 11:04:45;;;;;;;3.75;3.20;;;27.00;67.70;;;;;;5005778;28;20041;-60
2022/08/15 11:07:32;;;;;;;3.90;3.28;;;27.00;67.80;;;;;;5011726;28;20029;-59
2022/08/15 11:10:01;;;;;;;3.90;3.17;;;27.00;68.00;;;;;;5012173;28;20440;-58
2022/08/15 11:12:31;;;;;;;3.10;2.78;;;27.00;68.30;;;;;;5016471;28;20034;-59
2022/08/15 11:15:12;;;;;;;4.93;3.78;;;27.00;68.60;;;;;;5016473;28;20124;-57
2022/08/15 11:17:38;;;;;;;5.05;3.67;;;27.00;68.80;;;;;;5019312;28;20037;-59
2022/08/15 11:20:16;;;;;;;4.72;3.58;;;27.00;68.90;;;;;;5016167;28;20105;-60
2022/08/15 11:22:58;;;;;;;4.32;3.60;;;27.00;68.70;;;;;;5020819;28;20044;-58
2022/08/15 11:25:28;;;;;;;3.40;3.08;;;27.10;68.70;;;;;;5016367;28;20021;-58
2022/08/15 11:28:05;;;;;;;3.85;3.20;;;27.10;68.70;;;;;;4999414;28;20037;-58
2022/08/15 11:30:35;;;;;;;3.70;3.15;;;27.10;68.70;;;;;;5012888;28;20041;-58
2022/08/15 11:33:22;;;;;;;4.85;3.33;;;27.10;68.70;;;;;;5017207;28;20061;-59
2022/08/15 11:35:49;;;;;;;3.72;3.33;;;27.10;68.70;;;;;;5005647;28;20037;-59
2022/08/15 11:38:16;;;;;;;3.30;3.00;;;27.10;68.80;;;;;;5001237;28;20029;-59
2022/08/15 11:40:48;;;;;;;2.70;2.50;;;27.10;69.00;;;;;;5007339;28;20527;-59
2022/08/15 11:43:16;;;;;;;5.72;3.22;;;27.10;69.20;;;;;;5013028;28;20030;-59
2022/08/15 11:45:46;;;;;;;3.33;2.95;;;27.20;69.50;;;;;;5006877;28;20757;-59
2022/08/15 11:48:20;;;;;;;3.53;2.90;;;27.20;69.70;;;;;;5005362;28;20032;-59
2022/08/15 11:51:09;;;;;;;3.85;3.13;;;27.20;69.70;;;;;;5018019;28;20283;-59
2022/08/15 11:54:11;;;;;;;4.97;3.60;;;27.30;69.90;;;;;;5013145;28;20037;-58
2022/08/15 11:56:48;;;;;;;4.07;3.35;;;27.30;70.00;;;;;;5018196;28;20440;-59
2022/08/15 11:59:35;;;;;;;4.07;3.05;;;27.40;69.90;;;;;;5004349;28;20040;-58
2022/08/15 12:02:28;;;;;;;4.40;3.13;;;27.40;69.80;;;;;;5002354;28;20034;-60
2022/08/15 12:04:54;;;;;;;2.95;2.63;;;27.50;69.70;;;;;;5012099;28;20061;-61
2022/08/15 12:07:28;;;;;;;4.28;2.97;;;27.50;69.60;;;;;;5013495;28;20732;-60
2022/08/15 12:09:58;;;;;;;5.05;3.70;;;27.60;69.60;;;;;;5011461;28;20072;-59
2022/08/15 12:12:28;;;;;;;4.20;3.30;;;27.60;69.30;;;;;;5011704;28;20470;-59
2022/08/15 12:15:07;;;;;;;4.53;3.17;;;27.60;69.20;;;;;;5008652;28;20030;-59
2022/08/15 12:17:33;;;;;;;4.72;3.63;;;27.70;68.80;;;;;;5007086;28;20878;-58
2022/08/15 12:19:59;;;;;;;4.30;3.15;;;27.70;68.50;;;;;;5005912;28;20017;-60
2022/08/15 12:22:37;;;;;;;4.00;3.00;;;27.70;68.30;;;;;;5004017;28;20029;-60
2022/08/15 12:25:05;;;;;;;4.47;3.40;;;27.70;68.20;;;;;;5010706;28;20040;-59
2022/08/15 12:27:33;;;;;;;4.30;3.28;;;27.80;68.10;;;;;;5012653;28;20537;-59
2022/08/15 12:29:59;;;;;;;4.00;3.30;;;27.80;67.80;;;;;;5009831;28;20093;-59
2022/08/15 12:32:25;;;;;;;3.45;3.15;;;27.70;67.60;;;;;;5006974;28;20047;-60
2022/08/15 12:34:54;;;;;;;4.50;3.38;;;27.70;67.30;;;;;;5013461;28;20040;-59
2022/08/15 12:37:24;;;;;;;3.20;2.80;;;27.70;67.30;;;;;;5006653;28;20110;-58
2022/08/15 12:40:07;;;;;;;5.25;3.50;;;27.70;67.40;;;;;;5011402;28;20044;-59
2022/08/15 12:42:36;;;;;;;4.13;3.30;;;27.60;67.60;;;;;;5002169;28;20073;-60
2022/08/15 12:45:10;;;;;;;4.05;2.88;;;27.60;67.80;;;;;;4998206;28;23126;-59
2022/08/15 12:47:36;;;;;;;3.45;2.90;;;27.50;67.80;;;;;;5010765;28;20508;-58
2022/08/15 12:50:05;;;;;;;2.95;2.63;;;27.60;68.20;;;;;;5009375;28;20038;-58
2022/08/15 12:52:31;;;;;;;3.17;2.75;;;27.50;68.30;;;;;;4993487;28;20092;-59
2022/08/15 12:54:58;;;;;;;3.95;3.00;;;27.60;68.50;;;;;;4995321;28;20040;-58
2022/08/15 12:57:28;;;;;;;3.72;2.97;;;27.50;68.60;;;;;;5008436;28;20068;-59
2022/08/15 12:59:53;;;;;;;3.20;2.90;;;27.60;68.80;;;;;;5002116;28;20038;-60
2022/08/15 13:02:20;;;;;;;4.15;3.20;;;27.60;68.80;;;;;;5004112;28;20036;-57
2022/08/15 13:04:49;;;;;;;3.70;2.90;;;27.60;68.90;;;;;;5004719;28;20029;-58
2022/08/15 13:07:18;;;;;;;3.38;2.80;;;27.60;68.90;;;;;;5006488;28;20137;-59
2022/08/15 13:09:44;;;;;;;3.30;3.00;;;27.60;69.00;;;;;;5010771;28;20033;-57
2022/08/15 13:12:11;;;;;;;2.72;2.53;;;27.60;69.00;;;;;;5006735;28;20041;-60
2022/08/15 13:14:37;;;;;;;3.17;2.88;;;27.60;69.10;;;;;;5004257;28;20037;-59
2022/08/15 13:17:03;;;;;;;2.70;2.50;;;27.60;69.20;;;;;;4999801;28;20033;-59
2022/08/15 13:25:25;;;;;;;2.85;2.50;;;27.60;69.30;;;;;;4994341;28;20048;-60
2022/08/15 13:27:51;;;;;;;2.80;2.60;;;27.70;69.30;;;;;;5007248;28;20045;-59